createdAt,value
2019-01-15T00:00:20.548Z,1.50
2019-01-15T00:02:48.959Z,1.90
2019-01-15T00:05:17.495Z,1.55
2019-01-15T00:07:45.899Z,2.22
2019-01-15T00:10:14.589Z,1.98
2019-01-15T00:12:42.998Z,1.80
2019-01-15T00:15:12.080Z,2.10
2019-01-15T00:17:40.490Z,2.22
2019-01-15T00:20:14.586Z,2.90
2019-01-15T00:22:43.010Z,1.20
2019-01-15T00:25:12.079Z,1.90
2019-01-15T00:27:40.487Z,2.30
2019-01-15T00:30:17.306Z,1.40
2019-01-15T00:32:45.905Z,1.70
2019-01-15T00:35:14.344Z,2.33
2019-01-15T00:37:42.771Z,2.08
2019-01-15T00:40:13.810Z,2.22
2019-01-15T00:42:45.587Z,2.22
2019-01-15T00:45:14.635Z,2.60
2019-01-15T00:47:43.068Z,2.83
2019-01-15T00:50:16.212Z,2.20
2019-01-15T00:52:44.679Z,2.60
2019-01-15T00:55:13.370Z,2.92
2019-01-15T00:57:41.805Z,1.77
2019-01-15T01:00:16.222Z,2.00
2019-01-15T01:02:44.711Z,2.10
2019-01-15T01:05:17.230Z,1.75
2019-01-15T01:07:45.729Z,2.10
2019-01-15T01:10:15.477Z,2.52
2019-01-15T01:12:44.375Z,1.92
2019-01-15T01:15:18.247Z,1.62
2019-01-15T01:17:46.916Z,2.92
2019-01-15T01:20:18.648Z,1.45
2019-01-15T01:22:47.178Z,1.72
2019-01-15T01:25:15.588Z,1.77
2019-01-15T01:27:44.060Z,1.87
2019-01-15T01:30:21.326Z,2.00
2019-01-15T01:32:49.811Z,3.10
2019-01-15T01:35:18.246Z,1.72
2019-01-15T01:37:46.843Z,2.30
2019-01-15T01:40:17.591Z,2.37
2019-01-15T01:42:46.274Z,2.37
2019-01-15T01:45:20.907Z,2.00
2019-01-15T01:47:49.343Z,1.62
2019-01-15T01:50:17.754Z,2.00
2019-01-15T01:52:46.166Z,3.35
2019-01-15T01:55:15.120Z,2.45
2019-01-15T01:57:44.700Z,2.20
2019-01-15T02:00:22.587Z,1.50
2019-01-15T02:02:51.048Z,1.60
2019-01-15T02:05:19.573Z,1.67
2019-01-15T02:07:48.388Z,1.50
2019-01-15T02:10:17.868Z,1.90
2019-01-15T02:12:46.776Z,1.67
2019-01-15T02:15:19.782Z,1.90
2019-01-15T02:17:48.483Z,2.10
2019-01-15T02:20:19.153Z,2.10
2019-01-15T02:22:48.119Z,1.80
2019-01-15T02:25:16.612Z,2.58
2019-01-15T02:27:46.719Z,2.92
2019-01-15T02:30:17.576Z,1.67
2019-01-15T02:32:45.995Z,1.98
2019-01-15T02:35:14.770Z,2.30
2019-01-15T02:37:43.198Z,1.75
2019-01-15T02:40:14.180Z,1.35
2019-01-15T02:42:46.671Z,1.92
2019-01-15T02:45:20.493Z,1.60
2019-01-15T02:47:48.984Z,2.30
2019-01-15T02:50:19.260Z,1.98
2019-01-15T02:52:47.885Z,1.72
2019-01-15T02:55:17.063Z,2.45
2019-01-15T02:57:45.478Z,1.30
2019-01-15T03:00:22.504Z,2.42
2019-01-15T03:02:50.929Z,1.47
2019-01-15T03:05:19.894Z,2.12
2019-01-15T03:07:48.315Z,2.20
2019-01-15T03:10:19.165Z,2.08
2019-01-15T03:12:54.873Z,2.00
2019-01-15T03:15:20.446Z,1.25
2019-01-15T03:17:53.484Z,1.98
2019-01-15T03:20:22.284Z,2.25
2019-01-15T03:22:50.751Z,1.20
2019-01-15T03:25:19.231Z,2.67
2019-01-15T03:27:47.681Z,2.45
2019-01-15T03:30:18.932Z,1.98
2019-01-15T03:32:47.336Z,2.55
2019-01-15T03:35:16.125Z,2.75
2019-01-15T03:37:44.743Z,2.52
2019-01-15T03:40:19.526Z,2.00
2019-01-15T03:42:47.934Z,2.77
2019-01-15T03:45:16.443Z,4.90
2019-01-15T03:47:44.829Z,2.22
2019-01-15T03:50:13.963Z,2.00
2019-01-15T03:52:42.438Z,2.58
2019-01-15T03:55:13.387Z,3.62
2019-01-15T03:57:42.676Z,3.55
2019-01-15T04:00:17.067Z,2.58
2019-01-15T04:02:45.948Z,2.37
2019-01-15T04:05:16.403Z,2.25
2019-01-15T04:07:45.646Z,2.22
2019-01-15T04:10:14.346Z,2.85
2019-01-15T04:12:43.087Z,3.60
2019-01-15T04:15:13.666Z,1.87
2019-01-15T04:17:42.464Z,2.55
2019-01-15T04:20:13.786Z,2.95
2019-01-15T04:22:42.459Z,2.10
2019-01-15T04:25:12.736Z,1.87
2019-01-15T04:27:41.143Z,2.45
2019-01-15T04:30:15.269Z,1.92
2019-01-15T04:32:46.874Z,2.52
2019-01-15T04:35:15.690Z,2.58
2019-01-15T04:37:44.299Z,2.20
2019-01-15T04:40:15.718Z,2.60
2019-01-15T04:42:44.125Z,3.60
2019-01-15T04:45:15.631Z,3.05
2019-01-15T04:47:46.810Z,1.92
2019-01-15T04:50:15.864Z,2.60
2019-01-15T04:52:46.712Z,1.95
2019-01-15T04:55:15.396Z,2.20
2019-01-15T04:57:43.808Z,2.33
2019-01-15T05:00:15.355Z,2.22
2019-01-15T05:02:44.080Z,3.15
2019-01-15T05:05:12.887Z,2.30
2019-01-15T05:07:41.297Z,2.37
2019-01-15T05:10:12.834Z,2.40
2019-01-15T05:12:41.448Z,2.45
2019-01-15T05:15:13.145Z,2.40
2019-01-15T05:17:41.776Z,2.37
2019-01-15T05:20:13.339Z,2.98
2019-01-15T05:22:41.808Z,2.40
2019-01-15T05:25:13.384Z,2.40
2019-01-15T05:27:41.800Z,2.85
2019-01-15T05:30:13.332Z,2.55
2019-01-15T05:32:45.709Z,2.15
2019-01-15T05:35:14.195Z,2.33
2019-01-15T05:37:42.676Z,2.58
2019-01-15T05:40:13.951Z,2.37
2019-01-15T05:42:43.137Z,1.95
2019-01-15T05:45:21.899Z,2.70
2019-01-15T05:47:55.116Z,2.17
2019-01-15T05:50:27.718Z,2.95
2019-01-15T05:52:56.156Z,2.47
2019-01-15T05:55:24.644Z,1.57
2019-01-15T05:57:53.091Z,3.17
2019-01-15T06:00:21.694Z,3.37
2019-01-15T06:02:51.028Z,3.33
2019-01-15T06:05:20.092Z,2.52
2019-01-15T06:07:48.500Z,2.22
2019-01-15T06:10:16.925Z,2.75
2019-01-15T06:12:45.383Z,2.77
2019-01-15T06:15:16.116Z,4.25
2019-01-15T06:17:44.578Z,2.22
2019-01-15T06:20:18.038Z,3.60
2019-01-15T06:22:46.551Z,2.47
2019-01-15T06:25:15.401Z,2.60
2019-01-15T06:27:43.830Z,2.00
2019-01-15T06:30:20.499Z,2.20
2019-01-15T06:32:48.990Z,1.92
2019-01-15T06:35:17.420Z,1.60
2019-01-15T06:37:46.304Z,2.27
2019-01-15T06:40:16.744Z,2.95
2019-01-15T06:42:45.178Z,3.10
2019-01-15T06:45:27.919Z,1.75
2019-01-15T06:47:56.659Z,1.98
2019-01-15T06:50:25.114Z,1.90
2019-01-15T06:52:53.550Z,1.47
2019-01-15T06:55:23.608Z,2.45
2019-01-15T06:57:52.035Z,3.83
2019-01-15T07:00:23.755Z,1.72
2019-01-15T07:02:52.162Z,2.50
2019-01-15T07:05:21.209Z,1.80
2019-01-15T07:07:50.122Z,2.40
2019-01-15T07:10:24.215Z,2.52
2019-01-15T07:12:52.730Z,2.58
2019-01-15T07:15:21.314Z,2.75
2019-01-15T07:17:49.727Z,2.90
2019-01-15T07:20:21.191Z,2.20
2019-01-15T07:22:52.899Z,2.50
2019-01-15T07:25:28.380Z,2.10
2019-01-15T07:27:57.040Z,2.10
2019-01-15T07:30:43.879Z,2.17
2019-01-15T07:33:12.375Z,2.33
2019-01-15T07:35:48.582Z,2.33
2019-01-15T07:38:17.017Z,2.27
2019-01-15T07:40:45.419Z,2.17
2019-01-15T07:43:13.852Z,2.40
2019-01-15T07:45:42.282Z,2.20
2019-01-15T07:48:10.714Z,2.95
2019-01-15T07:50:43.359Z,2.75
2019-01-15T07:53:11.772Z,1.90
2019-01-15T07:55:40.200Z,2.67
2019-01-15T07:58:08.650Z,1.70
2019-01-15T08:00:37.055Z,1.90
2019-01-15T08:03:05.535Z,1.52
2019-01-15T08:05:37.311Z,2.33
2019-01-15T08:08:06.064Z,2.50
2019-01-15T08:10:34.918Z,1.75
2019-01-15T08:13:03.716Z,1.70
2019-01-15T08:15:32.133Z,2.37
2019-01-15T08:18:00.591Z,3.30
2019-01-15T08:20:31.906Z,2.75
2019-01-15T08:23:00.307Z,2.15
2019-01-15T08:25:28.734Z,2.40
2019-01-15T08:27:57.141Z,2.55
2019-01-15T08:30:30.863Z,2.42
2019-01-15T08:32:59.269Z,2.37
2019-01-15T08:35:27.862Z,2.62
2019-01-15T08:37:56.435Z,2.33
2019-01-15T08:40:24.847Z,2.90
2019-01-15T08:42:53.299Z,3.17
2019-01-15T08:45:21.778Z,2.22
2019-01-15T08:47:57.659Z,2.30
2019-01-15T08:50:28.510Z,2.90
2019-01-15T08:53:01.268Z,3.17
2019-01-15T08:55:29.672Z,2.58
2019-01-15T08:57:58.111Z,2.85
2019-01-15T09:00:26.616Z,2.55
2019-01-15T09:02:55.020Z,3.20
2019-01-15T09:05:23.468Z,2.80
2019-01-15T09:07:56.164Z,3.35
2019-01-15T09:10:24.574Z,4.25
2019-01-15T09:12:53.003Z,3.40
2019-01-15T09:15:22.665Z,3.47
2019-01-15T09:17:51.404Z,3.20
2019-01-15T09:20:21.859Z,3.60
2019-01-15T09:22:53.623Z,4.05
2019-01-15T09:25:22.263Z,3.85
2019-01-15T09:27:50.695Z,3.67
2019-01-15T09:30:21.397Z,4.42
2019-01-15T09:32:50.084Z,3.92
2019-01-15T09:35:18.573Z,4.55
2019-01-15T09:37:48.365Z,5.55
2019-01-15T09:40:19.294Z,6.15
2019-01-15T09:42:47.893Z,3.92
2019-01-15T09:45:18.501Z,3.50
2019-01-15T09:47:51.438Z,3.90
2019-01-15T09:50:19.933Z,3.40
2019-01-15T09:52:48.812Z,5.62
2019-01-15T09:55:17.683Z,5.08
2019-01-15T09:57:46.088Z,3.72
2019-01-15T10:00:17.536Z,4.42
2019-01-15T10:02:46.536Z,4.25
2019-01-15T10:05:14.949Z,4.47
2019-01-15T10:07:43.429Z,3.30
2019-01-15T10:10:14.421Z,3.15
2019-01-15T10:12:43.103Z,3.25
2019-01-15T10:15:17.283Z,3.75
2019-01-15T10:17:45.786Z,3.77
2019-01-15T10:20:16.961Z,3.40
2019-01-15T10:22:50.032Z,2.95
2019-01-15T10:25:25.608Z,4.20
2019-01-15T10:27:55.084Z,3.95
2019-01-15T10:30:31.195Z,3.80
2019-01-15T10:33:20.647Z,3.65
2019-01-15T10:35:54.931Z,2.72
2019-01-15T10:38:31.598Z,3.83
2019-01-15T10:41:00.274Z,3.85
2019-01-15T10:43:28.979Z,3.30
2019-01-15T10:45:57.493Z,3.35
2019-01-15T10:48:25.890Z,2.67
2019-01-15T10:50:54.559Z,3.00
2019-01-15T10:53:23.811Z,2.98
2019-01-15T10:55:52.602Z,2.42
2019-01-15T10:58:21.035Z,3.65
2019-01-15T11:00:49.418Z,4.37
2019-01-15T11:03:17.858Z,3.90
2019-01-15T11:05:46.528Z,4.40
2019-01-15T11:08:15.305Z,3.92
2019-01-15T11:10:43.705Z,3.08
2019-01-15T11:13:12.167Z,2.70
2019-01-15T11:15:43.390Z,3.22
2019-01-15T11:18:10.750Z,3.52
2019-01-15T11:20:39.185Z,3.15
2019-01-15T11:23:07.614Z,3.37
2019-01-15T11:25:36.045Z,3.60
2019-01-15T11:28:05.544Z,3.08
2019-01-15T11:30:34.118Z,3.60
2019-01-15T11:33:02.550Z,2.77
2019-01-15T11:35:30.981Z,3.80
2019-01-15T11:37:59.386Z,2.92
2019-01-15T11:40:27.826Z,2.87
2019-01-15T11:42:56.315Z,4.03
2019-01-15T11:45:24.823Z,3.10
2019-01-15T11:47:53.573Z,3.45
2019-01-15T11:50:22.975Z,3.35
2019-01-15T11:52:51.723Z,4.08
2019-01-15T11:55:21.382Z,3.17
2019-01-15T11:57:50.211Z,3.75
2019-01-15T12:00:31.786Z,3.77
2019-01-15T12:03:01.869Z,3.47
2019-01-15T12:05:40.627Z,3.12
2019-01-15T12:08:22.709Z,3.40
2019-01-15T12:11:04.971Z,3.40
2019-01-15T12:13:51.294Z,2.92
2019-01-15T12:16:38.235Z,3.12
2019-01-15T12:19:13.968Z,3.80
2019-01-15T12:21:46.766Z,3.80
2019-01-15T12:24:22.796Z,2.92
2019-01-15T12:26:52.843Z,3.33
2019-01-15T12:29:31.535Z,3.27
2019-01-15T12:32:01.604Z,3.00
2019-01-15T12:34:37.482Z,3.70
2019-01-15T12:37:10.019Z,4.25
2019-01-15T12:39:59.277Z,3.12
2019-01-15T12:42:29.331Z,3.22
2019-01-15T12:44:59.419Z,3.30
2019-01-15T12:47:35.184Z,3.25
2019-01-15T12:50:06.711Z,2.50
2019-01-15T12:52:36.787Z,3.45
2019-01-15T12:55:12.259Z,2.35
2019-01-15T12:57:51.527Z,3.37
2019-01-15T13:00:27.873Z,2.77
2019-01-15T13:03:14.334Z,3.33
2019-01-15T13:05:59.699Z,3.22
2019-01-15T13:08:38.377Z,3.00
2019-01-15T13:11:17.182Z,2.58
2019-01-15T13:14:03.728Z,2.62
2019-01-15T13:16:36.579Z,3.60
2019-01-15T13:19:19.555Z,3.15
2019-01-15T13:21:58.092Z,3.20
2019-01-15T13:24:28.344Z,3.08
2019-01-15T13:27:07.132Z,3.22
2019-01-15T13:29:54.861Z,3.75
2019-01-15T13:32:27.644Z,3.58
2019-01-15T13:35:03.383Z,4.17
2019-01-15T13:37:51.746Z,4.22
2019-01-15T13:40:36.536Z,4.28
2019-01-15T13:43:24.600Z,3.98
2019-01-15T13:46:03.656Z,4.25
2019-01-15T13:48:34.000Z,4.85
2019-01-15T13:51:04.138Z,4.10
2019-01-15T13:53:39.681Z,5.05
2019-01-15T13:56:13.945Z,4.50
2019-01-15T13:59:00.169Z,4.95
2019-01-15T14:01:30.275Z,4.10
2019-01-15T14:04:15.459Z,4.42
2019-01-15T14:06:48.463Z,4.22
2019-01-15T14:09:23.055Z,4.35
2019-01-15T14:11:56.719Z,4.78
2019-01-15T14:14:26.864Z,3.10
2019-01-15T14:16:56.975Z,5.87
2019-01-15T14:19:27.038Z,4.70
2019-01-15T14:21:59.846Z,4.33
2019-01-15T14:24:29.983Z,4.10
2019-01-15T14:27:15.152Z,5.75
2019-01-15T14:30:00.271Z,3.90
2019-01-15T14:32:34.387Z,4.60
2019-01-15T14:35:10.060Z,6.12
2019-01-15T14:38:14.695Z,5.42
2019-01-15T14:41:01.464Z,3.77
2019-01-15T14:43:31.512Z,4.37
2019-01-15T14:46:16.596Z,4.25
2019-01-15T14:48:52.475Z,5.17
2019-01-15T14:51:22.534Z,4.22
2019-01-15T14:53:58.813Z,3.52
2019-01-15T14:56:38.129Z,4.87
2019-01-15T14:59:20.631Z,4.05
2019-01-15T15:01:56.192Z,5.22
2019-01-15T15:04:26.307Z,3.60
2019-01-15T15:07:14.456Z,3.80
2019-01-15T15:09:47.311Z,3.40
2019-01-15T15:12:32.318Z,3.15
2019-01-15T15:15:09.375Z,4.22
2019-01-15T15:17:42.375Z,4.03
2019-01-15T15:20:13.113Z,2.90
2019-01-15T15:22:46.195Z,3.60
2019-01-15T15:25:19.237Z,4.40
2019-01-15T15:27:52.370Z,3.15
2019-01-15T15:30:40.898Z,3.67
2019-01-15T15:33:27.253Z,3.60
2019-01-15T15:36:00.086Z,4.08
2019-01-15T15:38:30.151Z,2.55
2019-01-15T15:41:00.284Z,4.28
2019-01-15T15:43:42.489Z,3.37
2019-01-15T15:46:21.645Z,3.62
2019-01-15T15:48:54.839Z,3.15
2019-01-15T15:51:33.691Z,3.30
2019-01-15T15:54:12.694Z,3.70
2019-01-15T15:56:42.822Z,7.53
2019-01-15T15:59:32.435Z,3.55
2019-01-15T16:02:02.483Z,4.60
2019-01-15T16:04:32.678Z,4.22
2019-01-15T16:07:05.836Z,4.03
2019-01-15T16:09:35.906Z,4.58
2019-01-15T16:12:15.343Z,4.83
2019-01-15T16:14:51.158Z,5.22
2019-01-15T16:17:33.561Z,5.08
2019-01-15T16:20:03.756Z,4.00
2019-01-15T16:22:50.036Z,4.03
2019-01-15T16:25:20.118Z,4.72
2019-01-15T16:27:53.165Z,4.05
2019-01-15T16:30:23.211Z,3.30
2019-01-15T16:33:05.470Z,4.78
2019-01-15T16:35:38.286Z,5.10
2019-01-15T16:38:14.066Z,4.87
2019-01-15T16:40:45.546Z,4.12
2019-01-15T16:43:20.795Z,5.78
2019-01-15T16:45:51.087Z,5.50
2019-01-15T16:48:21.128Z,4.08
2019-01-15T16:50:57.293Z,4.80
2019-01-15T16:53:44.296Z,4.72
2019-01-15T16:56:30.703Z,5.65
2019-01-15T16:59:19.556Z,4.83
2019-01-15T17:01:52.573Z,5.55
2019-01-15T17:04:23.072Z,5.08
2019-01-15T17:07:08.259Z,6.25
2019-01-15T17:09:44.261Z,5.15
2019-01-15T17:12:14.340Z,6.10
2019-01-15T17:14:47.771Z,4.75
2019-01-15T17:17:23.750Z,5.25
2019-01-15T17:19:56.731Z,5.15
2019-01-15T17:22:30.003Z,3.75
2019-01-15T17:25:16.600Z,4.20
2019-01-15T17:27:52.802Z,3.87
2019-01-15T17:30:41.424Z,5.25
2019-01-15T17:33:26.263Z,6.80
2019-01-15T17:36:02.261Z,6.22
2019-01-15T17:38:32.334Z,4.80
2019-01-15T17:41:11.547Z,4.78
2019-01-15T17:43:59.668Z,5.17
2019-01-15T17:46:45.828Z,5.30
2019-01-15T17:49:33.774Z,5.70
2019-01-15T17:52:15.683Z,4.90
2019-01-15T17:54:52.034Z,5.12
2019-01-15T17:57:27.904Z,6.05
2019-01-15T18:00:07.596Z,6.50
2019-01-15T18:02:49.765Z,5.90
2019-01-15T18:05:19.862Z,5.10
2019-01-15T18:07:53.048Z,6.00
2019-01-15T18:10:31.995Z,4.35
2019-01-15T18:13:07.911Z,4.67
2019-01-15T18:15:37.960Z,5.72
2019-01-15T18:18:23.344Z,5.37
2019-01-15T18:20:53.388Z,5.33
2019-01-15T18:23:29.207Z,3.67
2019-01-15T18:26:11.255Z,5.35
2019-01-15T18:28:41.376Z,5.58
2019-01-15T18:31:14.171Z,4.80
2019-01-15T18:33:52.996Z,6.00
2019-01-15T18:36:39.373Z,5.60
2019-01-15T18:39:12.941Z,4.58
2019-01-15T18:41:43.016Z,6.40
2019-01-15T18:44:19.083Z,6.80
2019-01-15T18:47:06.944Z,5.62
2019-01-15T18:49:37.030Z,5.15
2019-01-15T18:52:07.108Z,6.25
2019-01-15T18:54:49.132Z,5.40
2019-01-15T18:57:19.175Z,5.45
2019-01-15T19:00:05.210Z,5.75
2019-01-15T19:02:47.500Z,4.97
2019-01-15T19:05:17.555Z,5.37
2019-01-15T19:07:47.633Z,6.25
2019-01-15T19:10:29.878Z,5.95
2019-01-15T19:13:09.135Z,5.70
2019-01-15T19:15:39.217Z,5.70
2019-01-15T19:18:09.265Z,5.50
2019-01-15T19:20:46.872Z,5.30
2019-01-15T19:23:17.094Z,5.70
2019-01-15T19:25:47.161Z,5.72
2019-01-15T19:28:17.285Z,5.35
2019-01-15T19:30:55.995Z,5.28
2019-01-15T19:33:31.960Z,5.22
2019-01-15T19:36:10.999Z,5.10
2019-01-15T19:38:59.107Z,5.55
2019-01-15T19:41:41.422Z,5.15
2019-01-15T19:44:14.153Z,5.20
2019-01-15T19:46:47.320Z,6.50
2019-01-15T19:49:20.054Z,5.53
2019-01-15T19:52:01.518Z,5.65
2019-01-15T19:54:40.109Z,5.08
2019-01-15T19:57:10.244Z,4.90
2019-01-15T19:59:40.333Z,4.30
2019-01-15T20:02:26.870Z,3.65
2019-01-15T20:04:57.060Z,6.35
2019-01-15T20:07:45.260Z,7.35
2019-01-15T20:10:18.854Z,5.00
2019-01-15T20:13:04.274Z,5.37
2019-01-15T20:15:50.337Z,5.17
2019-01-15T20:18:32.360Z,5.20
2019-01-15T20:21:08.409Z,4.87
2019-01-15T20:23:47.283Z,5.80
2019-01-15T20:26:17.397Z,4.78
2019-01-15T20:28:50.594Z,5.15
2019-01-15T20:31:38.680Z,4.30
2019-01-15T20:34:17.612Z,5.35
2019-01-15T20:36:50.249Z,4.33
2019-01-15T20:39:26.263Z,4.65
2019-01-15T20:42:02.275Z,5.08
2019-01-15T20:44:48.490Z,5.25
2019-01-15T20:47:36.911Z,5.45
2019-01-15T20:50:10.139Z,4.50
2019-01-15T20:52:49.452Z,4.20
2019-01-15T20:55:22.618Z,4.75
2019-01-15T20:58:04.621Z,5.00
2019-01-15T21:00:46.507Z,5.30
2019-01-15T21:03:19.798Z,4.90
2019-01-15T21:05:52.935Z,5.37
2019-01-15T21:08:23.031Z,6.12
2019-01-15T21:10:53.123Z,6.12
2019-01-15T21:13:39.331Z,4.72
2019-01-15T21:16:09.391Z,6.12
2019-01-15T21:18:55.400Z,5.50
2019-01-15T21:21:31.054Z,5.47
2019-01-15T21:24:17.651Z,5.70
2019-01-15T21:27:02.970Z,5.20
2019-01-15T21:29:35.747Z,5.37
2019-01-15T21:32:22.345Z,5.37
2019-01-15T21:34:52.668Z,4.25
2019-01-15T21:37:37.695Z,4.83
2019-01-15T21:40:17.532Z,4.90
2019-01-15T21:42:50.543Z,4.12
2019-01-15T21:45:27.075Z,6.08
2019-01-15T21:48:11.963Z,4.40
2019-01-15T21:50:42.031Z,5.05
2019-01-15T21:53:15.071Z,4.55
2019-01-15T21:55:47.936Z,4.40
2019-01-15T21:58:17.983Z,3.85
2019-01-15T22:00:56.557Z,4.12
2019-01-15T22:03:29.395Z,4.72
2019-01-15T22:06:14.370Z,4.97
2019-01-15T22:08:44.460Z,6.08
2019-01-15T22:11:14.576Z,5.03
2019-01-15T22:13:47.443Z,5.12
2019-01-15T22:16:17.607Z,4.90
2019-01-15T22:18:50.621Z,4.75
2019-01-15T22:21:20.823Z,4.90
2019-01-15T22:24:07.232Z,5.65
2019-01-15T22:26:37.354Z,4.72
2019-01-15T22:29:13.387Z,4.80
2019-01-15T22:31:58.435Z,5.10
2019-01-15T22:34:40.723Z,4.22
2019-01-15T22:37:13.525Z,4.30
2019-01-15T22:39:49.703Z,3.55
2019-01-15T22:42:31.886Z,4.47
2019-01-15T22:45:18.156Z,3.80
2019-01-15T22:47:55.058Z,4.50
2019-01-15T22:50:25.397Z,5.17
2019-01-15T22:53:07.754Z,5.17
2019-01-15T22:55:54.190Z,4.62
2019-01-15T22:58:27.182Z,4.50
2019-01-15T23:01:11.412Z,4.45
2019-01-15T23:03:56.550Z,4.42
2019-01-15T23:06:26.764Z,4.80
2019-01-15T23:09:02.503Z,4.47
2019-01-15T23:11:32.583Z,4.00
2019-01-15T23:14:08.148Z,4.08
2019-01-15T23:16:43.982Z,4.65
2019-01-15T23:19:16.914Z,4.92
2019-01-15T23:21:55.964Z,4.70
2019-01-15T23:24:28.715Z,4.05
2019-01-15T23:27:15.315Z,6.45
2019-01-15T23:29:48.524Z,4.33
2019-01-15T23:32:27.267Z,4.08
2019-01-15T23:35:03.246Z,4.45
2019-01-15T23:37:38.919Z,4.10
2019-01-15T23:40:26.427Z,3.90
2019-01-15T23:42:56.489Z,5.30
2019-01-15T23:45:35.294Z,5.33
2019-01-15T23:48:22.362Z,3.98
2019-01-15T23:51:05.154Z,5.03
2019-01-15T23:53:51.707Z,4.30
2019-01-15T23:56:24.469Z,4.25
2019-01-15T23:58:54.511Z,5.33
